sensor_id;sensor_type;location;lat;lon;timestamp;P1;durP1;ratioP1;P2;durP2;ratioP2
15899;SDS011;8048;50.644;6.184;2023-09-08T00:02:24;5.97;;;4.97;;
15899;SDS011;8048;50.644;6.184;2023-09-08T00:04:50;5.70;;;5.20;;
15899;SDS011;8048;50.644;6.184;2023-09-08T00:07:16;4.90;;;4.53;;
15899;SDS011;8048;50.644;6.184;2023-09-08T00:09:41;5.70;;;5.20;;
15899;SDS011;8048;50.644;6.184;2023-09-08T00:12:07;4.90;;;4.50;;
15899;SDS011;8048;50.644;6.184;2023-09-08T00:14:32;5.50;;;5.10;;
15899;SDS011;8048;50.644;6.184;2023-09-08T00:16:58;6.00;;;5.30;;
15899;SDS011;8048;50.644;6.184;2023-09-08T00:19:24;9.40;;;5.10;;
15899;SDS011;8048;50.644;6.184;2023-09-08T00:21:50;4.93;;;4.57;;
15899;SDS011;8048;50.644;6.184;2023-09-08T00:24:15;4.57;;;4.13;;
15899;SDS011;8048;50.644;6.184;2023-09-08T00:26:42;9.30;;;4.60;;
15899;SDS011;8048;50.644;6.184;2023-09-08T00:29:08;6.33;;;5.83;;
15899;SDS011;8048;50.644;6.184;2023-09-08T00:31:33;4.93;;;4.63;;
15899;SDS011;8048;50.644;6.184;2023-09-08T00:33:59;5.73;;;5.30;;
15899;SDS011;8048;50.644;6.184;2023-09-08T00:36:24;5.40;;;5.00;;
15899;SDS011;8048;50.644;6.184;2023-09-08T00:38:50;5.43;;;4.90;;
15899;SDS011;8048;50.644;6.184;2023-09-08T00:41:15;4.70;;;4.40;;
15899;SDS011;8048;50.644;6.184;2023-09-08T00:43:41;5.10;;;4.50;;
15899;SDS011;8048;50.644;6.184;2023-09-08T00:46:07;5.27;;;4.80;;
15899;SDS011;8048;50.644;6.184;2023-09-08T00:48:33;5.50;;;5.00;;
15899;SDS011;8048;50.644;6.184;2023-09-08T00:51:00;4.83;;;4.43;;
15899;SDS011;8048;50.644;6.184;2023-09-08T00:53:25;6.93;;;4.87;;
15899;SDS011;8048;50.644;6.184;2023-09-08T00:55:51;5.73;;;5.23;;
15899;SDS011;8048;50.644;6.184;2023-09-08T00:58:18;4.40;;;4.10;;
15899;SDS011;8048;50.644;6.184;2023-09-08T01:00:43;5.20;;;4.70;;
15899;SDS011;8048;50.644;6.184;2023-09-08T01:03:10;5.00;;;4.67;;
15899;SDS011;8048;50.644;6.184;2023-09-08T01:05:36;5.57;;;4.80;;
15899;SDS011;8048;50.644;6.184;2023-09-08T01:08:02;4.80;;;4.00;;
15899;SDS011;8048;50.644;6.184;2023-09-08T01:10:28;5.17;;;4.73;;
15899;SDS011;8048;50.644;6.184;2023-09-08T01:12:54;4.53;;;4.23;;
15899;SDS011;8048;50.644;6.184;2023-09-08T01:15:19;5.97;;;5.40;;
15899;SDS011;8048;50.644;6.184;2023-09-08T01:17:45;4.97;;;4.63;;
15899;SDS011;8048;50.644;6.184;2023-09-08T01:26:07;4.93;;;4.53;;
15899;SDS011;8048;50.644;6.184;2023-09-08T01:28:35;5.10;;;4.70;;
15899;SDS011;8048;50.644;6.184;2023-09-08T01:31:01;6.17;;;5.17;;
15899;SDS011;8048;50.644;6.184;2023-09-08T01:33:27;5.50;;;4.63;;
15899;SDS011;8048;50.644;6.184;2023-09-08T01:35:52;5.00;;;4.53;;
15899;SDS011;8048;50.644;6.184;2023-09-08T01:38:20;4.20;;;4.00;;
15899;SDS011;8048;50.644;6.184;2023-09-08T01:40:46;5.13;;;4.63;;
15899;SDS011;8048;50.644;6.184;2023-09-08T01:43:12;5.23;;;4.83;;
15899;SDS011;8048;50.644;6.184;2023-09-08T01:45:37;4.63;;;4.23;;
15899;SDS011;8048;50.644;6.184;2023-09-08T01:48:03;5.43;;;4.93;;
15899;SDS011;8048;50.644;6.184;2023-09-08T01:50:29;4.60;;;4.30;;
15899;SDS011;8048;50.644;6.184;2023-09-08T01:52:54;5.97;;;4.33;;
15899;SDS011;8048;50.644;6.184;2023-09-08T01:55:20;6.43;;;4.87;;
15899;SDS011;8048;50.644;6.184;2023-09-08T01:57:45;5.47;;;4.63;;
15899;SDS011;8048;50.644;6.184;2023-09-08T02:00:11;5.20;;;4.80;;
15899;SDS011;8048;50.644;6.184;2023-09-08T02:02:37;5.10;;;4.70;;
15899;SDS011;8048;50.644;6.184;2023-09-08T02:05:03;6.40;;;5.80;;
15899;SDS011;8048;50.644;6.184;2023-09-08T02:07:29;4.80;;;4.40;;
15899;SDS011;8048;50.644;6.184;2023-09-08T02:09:54;5.10;;;4.70;;
15899;SDS011;8048;50.644;6.184;2023-09-08T02:12:21;4.47;;;4.17;;
15899;SDS011;8048;50.644;6.184;2023-09-08T02:14:46;5.10;;;4.60;;
15899;SDS011;8048;50.644;6.184;2023-09-08T02:17:12;4.97;;;4.57;;
15899;SDS011;8048;50.644;6.184;2023-09-08T02:19:38;5.00;;;4.60;;
15899;SDS011;8048;50.644;6.184;2023-09-08T02:22:03;5.50;;;5.10;;
15899;SDS011;8048;50.644;6.184;2023-09-08T02:24:29;5.20;;;4.57;;
15899;SDS011;8048;50.644;6.184;2023-09-08T02:26:54;5.50;;;4.93;;
15899;SDS011;8048;50.644;6.184;2023-09-08T02:29:20;4.53;;;4.23;;
15899;SDS011;8048;50.644;6.184;2023-09-08T02:31:46;4.33;;;3.93;;
15899;SDS011;8048;50.644;6.184;2023-09-08T02:34:11;4.63;;;4.23;;
15899;SDS011;8048;50.644;6.184;2023-09-08T02:36:37;4.70;;;4.30;;
15899;SDS011;8048;50.644;6.184;2023-09-08T02:39:03;4.67;;;4.37;;
15899;SDS011;8048;50.644;6.184;2023-09-08T02:41:29;5.43;;;4.97;;
15899;SDS011;8048;50.644;6.184;2023-09-08T02:43:54;5.00;;;4.60;;
15899;SDS011;8048;50.644;6.184;2023-09-08T02:46:20;4.87;;;4.10;;
15899;SDS011;8048;50.644;6.184;2023-09-08T02:48:45;4.30;;;3.90;;
15899;SDS011;8048;50.644;6.184;2023-09-08T02:51:11;4.63;;;4.13;;
15899;SDS011;8048;50.644;6.184;2023-09-08T02:53:37;5.07;;;4.63;;
15899;SDS011;8048;50.644;6.184;2023-09-08T02:56:03;4.67;;;4.27;;
15899;SDS011;8048;50.644;6.184;2023-09-08T02:58:30;3.80;;;3.60;;
15899;SDS011;8048;50.644;6.184;2023-09-08T03:01:08;4.20;;;3.90;;
15899;SDS011;8048;50.644;6.184;2023-09-08T03:03:38;4.57;;;4.17;;
15899;SDS011;8048;50.644;6.184;2023-09-08T03:06:04;6.47;;;5.60;;
15899;SDS011;8048;50.644;6.184;2023-09-08T03:08:29;4.40;;;4.00;;
15899;SDS011;8048;50.644;6.184;2023-09-08T03:10:56;4.60;;;4.30;;
15899;SDS011;8048;50.644;6.184;2023-09-08T03:13:22;3.87;;;3.63;;
15899;SDS011;8048;50.644;6.184;2023-09-08T03:15:48;4.23;;;3.93;;
15899;SDS011;8048;50.644;6.184;2023-09-08T03:18:13;6.80;;;5.23;;
15899;SDS011;8048;50.644;6.184;2023-09-08T03:20:39;5.10;;;4.73;;
15899;SDS011;8048;50.644;6.184;2023-09-08T03:23:05;5.57;;;5.07;;
15899;SDS011;8048;50.644;6.184;2023-09-08T03:25:31;4.27;;;3.97;;
15899;SDS011;8048;50.644;6.184;2023-09-08T03:27:56;4.93;;;4.50;;
15899;SDS011;8048;50.644;6.184;2023-09-08T03:30:22;5.27;;;4.87;;
15899;SDS011;8048;50.644;6.184;2023-09-08T03:32:47;4.80;;;4.50;;
15899;SDS011;8048;50.644;6.184;2023-09-08T03:35:13;4.20;;;3.90;;
15899;SDS011;8048;50.644;6.184;2023-09-08T03:37:38;9.60;;;5.00;;
15899;SDS011;8048;50.644;6.184;2023-09-08T03:40:04;5.53;;;5.00;;
15899;SDS011;8048;50.644;6.184;2023-09-08T03:42:31;4.30;;;4.00;;
15899;SDS011;8048;50.644;6.184;2023-09-08T03:44:57;5.03;;;4.20;;
15899;SDS011;8048;50.644;6.184;2023-09-08T03:47:22;4.77;;;4.37;;
15899;SDS011;8048;50.644;6.184;2023-09-08T03:49:48;5.73;;;5.00;;
15899;SDS011;8048;50.644;6.184;2023-09-08T03:52:13;5.00;;;4.60;;
15899;SDS011;8048;50.644;6.184;2023-09-08T03:54:39;5.47;;;5.07;;
15899;SDS011;8048;50.644;6.184;2023-09-08T03:57:04;5.77;;;5.37;;
15899;SDS011;8048;50.644;6.184;2023-09-08T03:59:30;4.97;;;4.67;;
15899;SDS011;8048;50.644;6.184;2023-09-08T04:01:56;6.33;;;5.83;;
15899;SDS011;8048;50.644;6.184;2023-09-08T04:04:21;4.47;;;4.17;;
15899;SDS011;8048;50.644;6.184;2023-09-08T04:06:47;4.40;;;4.10;;
15899;SDS011;8048;50.644;6.184;2023-09-08T04:09:13;5.47;;;4.70;;
15899;SDS011;8048;50.644;6.184;2023-09-08T04:11:38;4.87;;;4.47;;
15899;SDS011;8048;50.644;6.184;2023-09-08T04:14:04;5.13;;;4.67;;
15899;SDS011;8048;50.644;6.184;2023-09-08T04:16:29;5.43;;;5.03;;
15899;SDS011;8048;50.644;6.184;2023-09-08T04:18:55;4.93;;;4.53;;
15899;SDS011;8048;50.644;6.184;2023-09-08T04:21:21;4.87;;;4.47;;
15899;SDS011;8048;50.644;6.184;2023-09-08T04:23:46;4.60;;;4.30;;
15899;SDS011;8048;50.644;6.184;2023-09-08T04:26:12;6.07;;;5.57;;
15899;SDS011;8048;50.644;6.184;2023-09-08T04:28:38;4.87;;;4.57;;
15899;SDS011;8048;50.644;6.184;2023-09-08T04:31:03;5.30;;;4.87;;
15899;SDS011;8048;50.644;6.184;2023-09-08T04:33:29;5.40;;;5.00;;
15899;SDS011;8048;50.644;6.184;2023-09-08T04:35:55;6.17;;;5.57;;
15899;SDS011;8048;50.644;6.184;2023-09-08T04:38:20;5.20;;;4.80;;
15899;SDS011;8048;50.644;6.184;2023-09-08T04:40:46;6.93;;;5.57;;
15899;SDS011;8048;50.644;6.184;2023-09-08T04:43:11;6.27;;;4.90;;
15899;SDS011;8048;50.644;6.184;2023-09-08T04:45:37;4.83;;;4.53;;
15899;SDS011;8048;50.644;6.184;2023-09-08T04:48:03;5.23;;;4.70;;
15899;SDS011;8048;50.644;6.184;2023-09-08T04:50:30;5.87;;;4.57;;
15899;SDS011;8048;50.644;6.184;2023-09-08T04:52:55;4.60;;;4.37;;
15899;SDS011;8048;50.644;6.184;2023-09-08T04:55:21;5.60;;;5.20;;
15899;SDS011;8048;50.644;6.184;2023-09-08T04:57:46;5.10;;;4.70;;
15899;SDS011;8048;50.644;6.184;2023-09-08T05:00:12;5.50;;;4.90;;
15899;SDS011;8048;50.644;6.184;2023-09-08T05:02:38;5.83;;;5.23;;
15899;SDS011;8048;50.644;6.184;2023-09-08T05:05:03;5.27;;;4.87;;
15899;SDS011;8048;50.644;6.184;2023-09-08T05:07:29;4.47;;;4.17;;
15899;SDS011;8048;50.644;6.184;2023-09-08T05:09:54;5.40;;;5.00;;
15899;SDS011;8048;50.644;6.184;2023-09-08T05:12:20;5.40;;;4.90;;
15899;SDS011;8048;50.644;6.184;2023-09-08T05:14:45;5.10;;;4.60;;
15899;SDS011;8048;50.644;6.184;2023-09-08T05:17:11;5.33;;;4.90;;
15899;SDS011;8048;50.644;6.184;2023-09-08T05:19:37;5.30;;;4.90;;
15899;SDS011;8048;50.644;6.184;2023-09-08T05:22:04;5.63;;;4.87;;
15899;SDS011;8048;50.644;6.184;2023-09-08T05:24:30;4.73;;;4.40;;
15899;SDS011;8048;50.644;6.184;2023-09-08T05:26:55;8.63;;;4.87;;
15899;SDS011;8048;50.644;6.184;2023-09-08T05:29:21;6.03;;;5.63;;
15899;SDS011;8048;50.644;6.184;2023-09-08T05:31:47;5.33;;;4.83;;
15899;SDS011;8048;50.644;6.184;2023-09-08T05:34:12;5.30;;;4.23;;
15899;SDS011;8048;50.644;6.184;2023-09-08T05:36:38;5.43;;;4.93;;
15899;SDS011;8048;50.644;6.184;2023-09-08T05:39:05;4.90;;;4.43;;
15899;SDS011;8048;50.644;6.184;2023-09-08T05:41:31;4.90;;;4.53;;
15899;SDS011;8048;50.644;6.184;2023-09-08T05:43:58;4.80;;;4.40;;
15899;SDS011;8048;50.644;6.184;2023-09-08T05:46:25;5.20;;;4.80;;
15899;SDS011;8048;50.644;6.184;2023-09-08T05:48:50;5.37;;;4.97;;
15899;SDS011;8048;50.644;6.184;2023-09-08T05:51:16;4.47;;;4.17;;
15899;SDS011;8048;50.644;6.184;2023-09-08T05:53:41;6.00;;;4.60;;
15899;SDS011;8048;50.644;6.184;2023-09-08T05:56:07;5.13;;;4.73;;
15899;SDS011;8048;50.644;6.184;2023-09-08T05:58:32;4.43;;;4.13;;
15899;SDS011;8048;50.644;6.184;2023-09-08T06:00:59;4.90;;;4.53;;
15899;SDS011;8048;50.644;6.184;2023-09-08T06:03:28;4.07;;;3.77;;
15899;SDS011;8048;50.644;6.184;2023-09-08T06:05:54;5.50;;;5.10;;
15899;SDS011;8048;50.644;6.184;2023-09-08T06:08:20;4.43;;;4.03;;
15899;SDS011;8048;50.644;6.184;2023-09-08T06:10:45;5.17;;;4.73;;
15899;SDS011;8048;50.644;6.184;2023-09-08T06:13:11;5.70;;;5.30;;
15899;SDS011;8048;50.644;6.184;2023-09-08T06:15:36;6.27;;;5.30;;
15899;SDS011;8048;50.644;6.184;2023-09-08T06:18:02;5.03;;;4.50;;
15899;SDS011;8048;50.644;6.184;2023-09-08T06:20:28;4.80;;;4.50;;
15899;SDS011;8048;50.644;6.184;2023-09-08T06:22:54;5.30;;;4.87;;
15899;SDS011;8048;50.644;6.184;2023-09-08T06:25:20;4.77;;;4.37;;
15899;SDS011;8048;50.644;6.184;2023-09-08T06:27:45;5.83;;;5.33;;
15899;SDS011;8048;50.644;6.184;2023-09-08T06:30:11;6.37;;;5.90;;
15899;SDS011;8048;50.644;6.184;2023-09-08T06:32:39;5.03;;;4.63;;
15899;SDS011;8048;50.644;6.184;2023-09-08T06:35:04;5.27;;;4.87;;
15899;SDS011;8048;50.644;6.184;2023-09-08T06:37:34;5.73;;;5.30;;
15899;SDS011;8048;50.644;6.184;2023-09-08T06:40:01;6.23;;;5.70;;
15899;SDS011;8048;50.644;6.184;2023-09-08T06:42:27;6.07;;;5.57;;
15899;SDS011;8048;50.644;6.184;2023-09-08T06:44:52;5.43;;;5.00;;
15899;SDS011;8048;50.644;6.184;2023-09-08T06:47:18;5.13;;;4.63;;
15899;SDS011;8048;50.644;6.184;2023-09-08T06:49:43;4.73;;;4.33;;
15899;SDS011;8048;50.644;6.184;2023-09-08T06:52:09;5.07;;;4.73;;
15899;SDS011;8048;50.644;6.184;2023-09-08T06:54:34;4.50;;;4.10;;
15899;SDS011;8048;50.644;6.184;2023-09-08T06:57:00;4.87;;;4.40;;
15899;SDS011;8048;50.644;6.184;2023-09-08T06:59:25;5.17;;;4.80;;
15899;SDS011;8048;50.644;6.184;2023-09-08T07:01:51;6.23;;;5.83;;
15899;SDS011;8048;50.644;6.184;2023-09-08T07:04:16;6.23;;;5.77;;
15899;SDS011;8048;50.644;6.184;2023-09-08T07:06:42;5.67;;;5.17;;
15899;SDS011;8048;50.644;6.184;2023-09-08T07:09:08;5.40;;;5.00;;
15899;SDS011;8048;50.644;6.184;2023-09-08T07:11:34;5.50;;;5.10;;
15899;SDS011;8048;50.644;6.184;2023-09-08T07:13:59;5.47;;;4.97;;
15899;SDS011;8048;50.644;6.184;2023-09-08T07:16:25;5.37;;;4.97;;
15899;SDS011;8048;50.644;6.184;2023-09-08T07:18:50;5.50;;;4.90;;
15899;SDS011;8048;50.644;6.184;2023-09-08T07:21:16;5.37;;;4.97;;
15899;SDS011;8048;50.644;6.184;2023-09-08T07:23:41;6.87;;;4.73;;
15899;SDS011;8048;50.644;6.184;2023-09-08T07:26:07;5.00;;;4.70;;
15899;SDS011;8048;50.644;6.184;2023-09-08T07:28:32;5.23;;;4.77;;
15899;SDS011;8048;50.644;6.184;2023-09-08T07:31:02;4.90;;;4.50;;
15899;SDS011;8048;50.644;6.184;2023-09-08T07:33:29;6.67;;;6.17;;
15899;SDS011;8048;50.644;6.184;2023-09-08T07:35:55;6.30;;;5.80;;
15899;SDS011;8048;50.644;6.184;2023-09-08T07:38:20;8.27;;;5.60;;
15899;SDS011;8048;50.644;6.184;2023-09-08T07:40:46;6.03;;;5.50;;
15899;SDS011;8048;50.644;6.184;2023-09-08T07:43:11;6.20;;;5.70;;
15899;SDS011;8048;50.644;6.184;2023-09-08T07:45:37;6.60;;;6.00;;
15899;SDS011;8048;50.644;6.184;2023-09-08T07:48:02;7.03;;;6.47;;
15899;SDS011;8048;50.644;6.184;2023-09-08T07:50:28;5.53;;;5.13;;
15899;SDS011;8048;50.644;6.184;2023-09-08T07:52:54;7.97;;;6.27;;
15899;SDS011;8048;50.644;6.184;2023-09-08T07:55:21;6.97;;;5.77;;
15899;SDS011;8048;50.644;6.184;2023-09-08T07:57:48;6.03;;;5.53;;
15899;SDS011;8048;50.644;6.184;2023-09-08T08:00:15;5.87;;;5.37;;
15899;SDS011;8048;50.644;6.184;2023-09-08T08:02:43;6.40;;;5.90;;
15899;SDS011;8048;50.644;6.184;2023-09-08T08:05:11;6.07;;;5.57;;
15899;SDS011;8048;50.644;6.184;2023-09-08T08:07:37;5.53;;;5.13;;
15899;SDS011;8048;50.644;6.184;2023-09-08T08:10:04;5.67;;;5.37;;
15899;SDS011;8048;50.644;6.184;2023-09-08T08:12:30;5.50;;;5.10;;
15899;SDS011;8048;50.644;6.184;2023-09-08T08:14:55;4.93;;;4.53;;
15899;SDS011;8048;50.644;6.184;2023-09-08T08:17:21;5.40;;;5.10;;
15899;SDS011;8048;50.644;6.184;2023-09-08T08:19:47;5.37;;;4.97;;
15899;SDS011;8048;50.644;6.184;2023-09-08T08:22:12;7.43;;;5.77;;
15899;SDS011;8048;50.644;6.184;2023-09-08T08:24:38;4.93;;;4.60;;
15899;SDS011;8048;50.644;6.184;2023-09-08T08:27:03;6.70;;;4.97;;
15899;SDS011;8048;50.644;6.184;2023-09-08T08:29:29;4.70;;;4.30;;
15899;SDS011;8048;50.644;6.184;2023-09-08T08:31:55;6.33;;;5.87;;
15899;SDS011;8048;50.644;6.184;2023-09-08T08:34:20;5.47;;;5.17;;
15899;SDS011;8048;50.644;6.184;2023-09-08T08:36:46;6.07;;;5.57;;
15899;SDS011;8048;50.644;6.184;2023-09-08T08:39:11;5.53;;;5.13;;
15899;SDS011;8048;50.644;6.184;2023-09-08T08:41:37;5.07;;;4.57;;
15899;SDS011;8048;50.644;6.184;2023-09-08T08:44:07;5.00;;;4.70;;
15899;SDS011;8048;50.644;6.184;2023-09-08T08:46:33;5.00;;;4.70;;
15899;SDS011;8048;50.644;6.184;2023-09-08T08:49:01;5.37;;;4.97;;
15899;SDS011;8048;50.644;6.184;2023-09-08T08:51:28;4.73;;;4.30;;
15899;SDS011;8048;50.644;6.184;2023-09-08T08:53:56;5.00;;;4.60;;
15899;SDS011;8048;50.644;6.184;2023-09-08T08:56:21;7.60;;;4.23;;
15899;SDS011;8048;50.644;6.184;2023-09-08T08:58:48;5.60;;;5.30;;
15899;SDS011;8048;50.644;6.184;2023-09-08T09:01:15;6.10;;;5.60;;
15899;SDS011;8048;50.644;6.184;2023-09-08T09:03:44;5.43;;;5.03;;
15899;SDS011;8048;50.644;6.184;2023-09-08T09:06:13;5.27;;;4.83;;
15899;SDS011;8048;50.644;6.184;2023-09-08T09:08:40;5.40;;;4.90;;
15899;SDS011;8048;50.644;6.184;2023-09-08T09:11:08;5.47;;;5.07;;
15899;SDS011;8048;50.644;6.184;2023-09-08T09:13:34;4.80;;;4.40;;
15899;SDS011;8048;50.644;6.184;2023-09-08T09:15:59;6.83;;;4.20;;
15899;SDS011;8048;50.644;6.184;2023-09-08T09:18:28;4.97;;;4.57;;
15899;SDS011;8048;50.644;6.184;2023-09-08T09:20:55;5.77;;;5.37;;
15899;SDS011;8048;50.644;6.184;2023-09-08T09:23:27;5.37;;;5.00;;
15899;SDS011;8048;50.644;6.184;2023-09-08T09:25:57;5.37;;;4.87;;
15899;SDS011;8048;50.644;6.184;2023-09-08T09:28:23;5.40;;;4.87;;
15899;SDS011;8048;50.644;6.184;2023-09-08T09:30:50;5.80;;;5.50;;
15899;SDS011;8048;50.644;6.184;2023-09-08T09:33:17;6.17;;;5.67;;
15899;SDS011;8048;50.644;6.184;2023-09-08T09:35:43;6.10;;;5.60;;
15899;SDS011;8048;50.644;6.184;2023-09-08T09:38:12;7.10;;;6.70;;
15899;SDS011;8048;50.644;6.184;2023-09-08T09:40:38;6.67;;;5.50;;
15899;SDS011;8048;50.644;6.184;2023-09-08T09:43:04;5.90;;;5.40;;
15899;SDS011;8048;50.644;6.184;2023-09-08T09:45:31;5.13;;;4.80;;
15899;SDS011;8048;50.644;6.184;2023-09-08T09:47:58;5.90;;;5.27;;
15899;SDS011;8048;50.644;6.184;2023-09-08T09:50:30;6.03;;;5.60;;
15899;SDS011;8048;50.644;6.184;2023-09-08T09:53:13;5.13;;;4.83;;
15899;SDS011;8048;50.644;6.184;2023-09-08T09:55:43;6.03;;;5.50;;
15899;SDS011;8048;50.644;6.184;2023-09-08T09:58:09;5.60;;;5.30;;
15899;SDS011;8048;50.644;6.184;2023-09-08T10:00:35;6.00;;;5.40;;
15899;SDS011;8048;50.644;6.184;2023-09-08T10:03:02;6.63;;;5.87;;
15899;SDS011;8048;50.644;6.184;2023-09-08T10:05:29;5.70;;;5.20;;
15899;SDS011;8048;50.644;6.184;2023-09-08T10:07:55;6.90;;;5.80;;
15899;SDS011;8048;50.644;6.184;2023-09-08T10:10:21;6.33;;;5.93;;
15899;SDS011;8048;50.644;6.184;2023-09-08T10:12:52;5.33;;;5.03;;
15899;SDS011;8048;50.644;6.184;2023-09-08T10:15:22;6.33;;;5.63;;
15899;SDS011;8048;50.644;6.184;2023-09-08T10:17:52;6.43;;;6.00;;
15899;SDS011;8048;50.644;6.184;2023-09-08T10:20:19;5.47;;;5.17;;
15899;SDS011;8048;50.644;6.184;2023-09-08T10:22:47;5.87;;;5.43;;
15899;SDS011;8048;50.644;6.184;2023-09-08T10:25:17;6.43;;;5.87;;
15899;SDS011;8048;50.644;6.184;2023-09-08T10:27:46;6.47;;;5.97;;
15899;SDS011;8048;50.644;6.184;2023-09-08T10:30:12;5.90;;;5.50;;
15899;SDS011;8048;50.644;6.184;2023-09-08T10:32:39;5.70;;;5.30;;
15899;SDS011;8048;50.644;6.184;2023-09-08T10:35:06;6.40;;;6.00;;
15899;SDS011;8048;50.644;6.184;2023-09-08T10:37:33;5.73;;;5.43;;
15899;SDS011;8048;50.644;6.184;2023-09-08T10:40:19;6.60;;;5.90;;
15899;SDS011;8048;50.644;6.184;2023-09-08T10:42:45;5.77;;;5.40;;
15899;SDS011;8048;50.644;6.184;2023-09-08T10:45:15;6.77;;;6.17;;
15899;SDS011;8048;50.644;6.184;2023-09-08T10:50:17;6.23;;;5.77;;
15899;SDS011;8048;50.644;6.184;2023-09-08T10:52:43;6.60;;;6.00;;
15899;SDS011;8048;50.644;6.184;2023-09-08T10:55:09;6.00;;;5.70;;
15899;SDS011;8048;50.644;6.184;2023-09-08T10:57:37;5.90;;;5.50;;
15899;SDS011;8048;50.644;6.184;2023-09-08T11:00:03;10.53;;;5.07;;
15899;SDS011;8048;50.644;6.184;2023-09-08T11:02:39;5.63;;;5.23;;
15899;SDS011;8048;50.644;6.184;2023-09-08T11:05:13;6.20;;;5.80;;
15899;SDS011;8048;50.644;6.184;2023-09-08T11:07:41;6.10;;;5.70;;
15899;SDS011;8048;50.644;6.184;2023-09-08T11:10:07;7.07;;;5.30;;
15899;SDS011;8048;50.644;6.184;2023-09-08T11:12:34;6.30;;;5.90;;
15899;SDS011;8048;50.644;6.184;2023-09-08T11:14:59;5.77;;;5.47;;
15899;SDS011;8048;50.644;6.184;2023-09-08T11:17:34;6.93;;;6.37;;
15899;SDS011;8048;50.644;6.184;2023-09-08T11:20:01;5.97;;;5.53;;
15899;SDS011;8048;50.644;6.184;2023-09-08T11:22:35;6.77;;;6.30;;
15899;SDS011;8048;50.644;6.184;2023-09-08T11:25:03;8.77;;;6.23;;
15899;SDS011;8048;50.644;6.184;2023-09-08T11:27:31;6.77;;;6.43;;
15899;SDS011;8048;50.644;6.184;2023-09-08T11:29:57;6.10;;;5.80;;
15899;SDS011;8048;50.644;6.184;2023-09-08T11:32:31;6.70;;;6.23;;
15899;SDS011;8048;50.644;6.184;2023-09-08T11:35:01;6.80;;;6.40;;
15899;SDS011;8048;50.644;6.184;2023-09-08T11:37:36;7.17;;;6.67;;
15899;SDS011;8048;50.644;6.184;2023-09-08T11:40:03;7.63;;;6.80;;
15899;SDS011;8048;50.644;6.184;2023-09-08T11:42:34;6.03;;;5.73;;
15899;SDS011;8048;50.644;6.184;2023-09-08T11:44:59;6.63;;;6.23;;
15899;SDS011;8048;50.644;6.184;2023-09-08T11:47:25;6.93;;;6.43;;
15899;SDS011;8048;50.644;6.184;2023-09-08T11:49:52;7.20;;;6.50;;
15899;SDS011;8048;50.644;6.184;2023-09-08T11:52:17;7.10;;;6.60;;
15899;SDS011;8048;50.644;6.184;2023-09-08T11:54:43;7.17;;;6.70;;
15899;SDS011;8048;50.644;6.184;2023-09-08T11:57:09;7.50;;;6.80;;
15899;SDS011;8048;50.644;6.184;2023-09-08T11:59:37;7.10;;;6.70;;
15899;SDS011;8048;50.644;6.184;2023-09-08T12:02:03;7.97;;;7.40;;
15899;SDS011;8048;50.644;6.184;2023-09-08T12:04:28;7.60;;;7.07;;
15899;SDS011;8048;50.644;6.184;2023-09-08T12:06:54;6.80;;;6.40;;
15899;SDS011;8048;50.644;6.184;2023-09-08T12:09:22;6.37;;;5.97;;
15899;SDS011;8048;50.644;6.184;2023-09-08T12:11:48;6.90;;;6.30;;
15899;SDS011;8048;50.644;6.184;2023-09-08T12:14:15;6.20;;;5.90;;
15899;SDS011;8048;50.644;6.184;2023-09-08T12:16:41;6.87;;;6.40;;
15899;SDS011;8048;50.644;6.184;2023-09-08T12:19:07;6.70;;;6.30;;
15899;SDS011;8048;50.644;6.184;2023-09-08T12:21:56;6.73;;;6.23;;
15899;SDS011;8048;50.644;6.184;2023-09-08T12:27:13;7.10;;;6.57;;
15899;SDS011;8048;50.644;6.184;2023-09-08T12:29:40;6.60;;;6.20;;
15899;SDS011;8048;50.644;6.184;2023-09-08T12:32:06;6.47;;;5.97;;
15899;SDS011;8048;50.644;6.184;2023-09-08T12:34:32;6.97;;;6.57;;
15899;SDS011;8048;50.644;6.184;2023-09-08T12:36:57;8.50;;;7.93;;
15899;SDS011;8048;50.644;6.184;2023-09-08T12:39:23;7.60;;;7.20;;
15899;SDS011;8048;50.644;6.184;2023-09-08T12:41:48;8.03;;;7.33;;
15899;SDS011;8048;50.644;6.184;2023-09-08T12:44:14;7.20;;;6.90;;
15899;SDS011;8048;50.644;6.184;2023-09-08T12:46:39;7.37;;;6.87;;
15899;SDS011;8048;50.644;6.184;2023-09-08T12:49:05;6.70;;;6.27;;
15899;SDS011;8048;50.644;6.184;2023-09-08T12:51:30;6.93;;;6.50;;
15899;SDS011;8048;50.644;6.184;2023-09-08T12:53:56;8.17;;;7.60;;
15899;SDS011;8048;50.644;6.184;2023-09-08T12:56:21;7.80;;;7.13;;
15899;SDS011;8048;50.644;6.184;2023-09-08T12:58:47;7.10;;;6.60;;
15899;SDS011;8048;50.644;6.184;2023-09-08T13:01:12;7.83;;;7.33;;
15899;SDS011;8048;50.644;6.184;2023-09-08T13:03:37;7.55;;;7.10;;
15899;SDS011;8048;50.644;6.184;2023-09-08T13:06:03;7.35;;;6.70;;
15899;SDS011;8048;50.644;6.184;2023-09-08T13:08:29;6.90;;;6.50;;
15899;SDS011;8048;50.644;6.184;2023-09-08T13:10:54;9.23;;;6.30;;
15899;SDS011;8048;50.644;6.184;2023-09-08T13:13:20;7.30;;;6.90;;
15899;SDS011;8048;50.644;6.184;2023-09-08T13:15:45;7.07;;;6.57;;
15899;SDS011;8048;50.644;6.184;2023-09-08T13:18:11;7.90;;;7.30;;
15899;SDS011;8048;50.644;6.184;2023-09-08T13:20:36;9.03;;;8.37;;
15899;SDS011;8048;50.644;6.184;2023-09-08T13:23:02;6.80;;;6.30;;
15899;SDS011;8048;50.644;6.184;2023-09-08T13:25:27;8.30;;;7.80;;
15899;SDS011;8048;50.644;6.184;2023-09-08T13:27:53;7.25;;;6.85;;
15899;SDS011;8048;50.644;6.184;2023-09-08T13:30:18;7.70;;;7.20;;
15899;SDS011;8048;50.644;6.184;2023-09-08T13:32:46;7.40;;;6.90;;
15899;SDS011;8048;50.644;6.184;2023-09-08T13:35:12;7.47;;;7.07;;
15899;SDS011;8048;50.644;6.184;2023-09-08T13:37:37;7.60;;;7.10;;
15899;SDS011;8048;50.644;6.184;2023-09-08T13:40:03;7.30;;;6.90;;
15899;SDS011;8048;50.644;6.184;2023-09-08T13:42:29;6.90;;;6.47;;
15899;SDS011;8048;50.644;6.184;2023-09-08T13:44:54;7.60;;;7.10;;
15899;SDS011;8048;50.644;6.184;2023-09-08T13:47:20;7.57;;;6.97;;
15899;SDS011;8048;50.644;6.184;2023-09-08T13:49:46;6.80;;;6.40;;
15899;SDS011;8048;50.644;6.184;2023-09-08T13:52:11;7.57;;;7.15;;
15899;SDS011;8048;50.644;6.184;2023-09-08T13:54:37;6.60;;;6.27;;
15899;SDS011;8048;50.644;6.184;2023-09-08T13:57:03;8.70;;;7.07;;
15899;SDS011;8048;50.644;6.184;2023-09-08T13:59:29;7.78;;;7.28;;
15899;SDS011;8048;50.644;6.184;2023-09-08T14:01:55;8.50;;;8.00;;
15899;SDS011;8048;50.644;6.184;2023-09-08T14:04:22;6.63;;;6.32;;
15899;SDS011;8048;50.644;6.184;2023-09-08T14:06:48;6.88;;;6.47;;
15899;SDS011;8048;50.644;6.184;2023-09-08T14:09:14;7.50;;;7.00;;
15899;SDS011;8048;50.644;6.184;2023-09-08T14:11:40;7.77;;;7.30;;
15899;SDS011;8048;50.644;6.184;2023-09-08T14:14:06;7.20;;;6.80;;
15899;SDS011;8048;50.644;6.184;2023-09-08T14:16:31;7.43;;;6.27;;
15899;SDS011;8048;50.644;6.184;2023-09-08T14:18:57;8.23;;;7.53;;
15899;SDS011;8048;50.644;6.184;2023-09-08T14:21:22;8.30;;;7.47;;
15899;SDS011;8048;50.644;6.184;2023-09-08T14:23:48;7.27;;;6.87;;
15899;SDS011;8048;50.644;6.184;2023-09-08T14:26:13;7.07;;;6.60;;
15899;SDS011;8048;50.644;6.184;2023-09-08T14:28:39;7.40;;;6.90;;
15899;SDS011;8048;50.644;6.184;2023-09-08T14:31:05;7.20;;;6.70;;
15899;SDS011;8048;50.644;6.184;2023-09-08T14:33:30;7.47;;;7.03;;
15899;SDS011;8048;50.644;6.184;2023-09-08T14:35:56;7.27;;;6.77;;
15899;SDS011;8048;50.644;6.184;2023-09-08T14:38:22;6.87;;;6.33;;
15899;SDS011;8048;50.644;6.184;2023-09-08T14:40:57;7.50;;;6.80;;
15899;SDS011;8048;50.644;6.184;2023-09-08T14:43:24;7.70;;;7.27;;
15899;SDS011;8048;50.644;6.184;2023-09-08T14:45:51;7.30;;;6.77;;
15899;SDS011;8048;50.644;6.184;2023-09-08T14:48:17;6.67;;;6.27;;
15899;SDS011;8048;50.644;6.184;2023-09-08T14:50:43;6.60;;;6.20;;
15899;SDS011;8048;50.644;6.184;2023-09-08T14:53:08;7.23;;;6.70;;
15899;SDS011;8048;50.644;6.184;2023-09-08T14:55:34;8.67;;;8.10;;
15899;SDS011;8048;50.644;6.184;2023-09-08T14:58:01;8.50;;;7.80;;
15899;SDS011;8048;50.644;6.184;2023-09-08T15:00:26;7.53;;;7.10;;
15899;SDS011;8048;50.644;6.184;2023-09-08T15:02:52;7.43;;;6.97;;
15899;SDS011;8048;50.644;6.184;2023-09-08T15:05:18;7.63;;;7.00;;
15899;SDS011;8048;50.644;6.184;2023-09-08T15:07:43;7.40;;;6.90;;